LIRZ/PEG METAR and TAF weather

Enter ICAO airport designator
Station Type Date Time Source
LIRZ METAR 2020/10/22 03:20 UTC NOAA

LIRZ 220320Z AUTO 02003KT 9999 BKN042/// 07/07 Q1026


Station Type Date Time Source
LIRZ Decoded METAR 2020/10/22 03:20 UTC NOAA

Perugia, Italy (LIRZ) 43-05N 012-30E 205M
Oct 21, 2020 - 11:20 PM EDT / 2020.10.22 0320 UTC
Wind: from the NNE (020 degrees) at 3 MPH (3 KT):0
Visibility: greater than 7 mile(s):0
Sky conditions: mostly cloudy
Temperature: 44 F (7 C)
Dew Point: 44 F (7 C)
Relative Humidity: 100%
Pressure (altimeter): 30.30 in. Hg (1026 hPa)
ob: LIRZ 220320Z AUTO 02003KT 9999 BKN042/// 07/07 Q1026
cycle: 3

Station Type Date Time Source
LIRZ TAF 2020/10/21 18:21 UTC NOAA

TAF LIRZ 211700Z 2118/2218 VRB05KT CAVOK

Example: see airport list